DLH2PC EDDM-LDRI
Flight info
| Callsign | DLH2PC |
|---|---|
| Flight time | 0h 38m |
| Altitude | 29000 |
| Route | ROTAX4E ROTAX L603 LATLO DCT OBEDI DCT EVAXI DCT GIMIX DCT UPETA DCT GIRDA |
| Aircraft | A319/M-SDE3FGHIRWY/LB1 |
Departure
| Time | 2026-05-06 14:20 |
|---|---|
| Airport | Munich Airport (EDDM) |
Arrival
| Time | 2026-05-06 14:59 |
|---|---|
| Airport | Rijeka Airport (LDRI) |
| Time | Latitude | Longitude | Altitude | Speed | Heading |
|---|---|---|---|---|---|
| 2026-05-06 13:43 | 48.35450 | 11.79311 | 1485 ft | 0 kts | 264° |
| 2026-05-06 13:46 | 48.35456 | 11.79300 | 1473 ft | 0 kts | 263° |
| 2026-05-06 14:06 | 48.35458 | 11.79319 | 1473 ft | 4 kts | 263° |
| 2026-05-06 14:06 | 48.35461 | 11.79360 | 1476 ft | 4 kts | 263° |
| 2026-05-06 14:06 | 48.35463 | 11.79392 | 1477 ft | 4 kts | 262° |
| 2026-05-06 14:06 | 48.35471 | 11.79428 | 1483 ft | 4 kts | 228° |
| 2026-05-06 14:07 | 48.35491 | 11.79447 | 1482 ft | 4 kts | 179° |
| 2026-05-06 14:07 | 48.35514 | 11.79444 | 1471 ft | 1 kts | 173° |
| 2026-05-06 14:10 | 48.35508 | 11.79445 | 1480 ft | 2 kts | 173° |
| 2026-05-06 14:10 | 48.35477 | 11.79450 | 1485 ft | 6 kts | 173° |
| 2026-05-06 14:11 | 48.35419 | 11.79461 | 1485 ft | 10 kts | 173° |
| 2026-05-06 14:11 | 48.35350 | 11.79473 | 1473 ft | 10 kts | 173° |
| 2026-05-06 14:11 | 48.35279 | 11.79486 | 1478 ft | 10 kts | 173° |
| 2026-05-06 14:11 | 48.35206 | 11.79498 | 1485 ft | 11 kts | 174° |
| 2026-05-06 14:12 | 48.35132 | 11.79510 | 1475 ft | 11 kts | 174° |
| 2026-05-06 14:12 | 48.35055 | 11.79523 | 1485 ft | 11 kts | 173° |
| 2026-05-06 14:12 | 48.34977 | 11.79538 | 1485 ft | 11 kts | 173° |
| 2026-05-06 14:12 | 48.34924 | 11.79546 | 1485 ft | 4 kts | 174° |
| 2026-05-06 14:13 | 48.34897 | 11.79551 | 1480 ft | 4 kts | 173° |
| 2026-05-06 14:13 | 48.34866 | 11.79556 | 1476 ft | 5 kts | 173° |
| 2026-05-06 14:13 | 48.34825 | 11.79560 | 1485 ft | 7 kts | 186° |
| 2026-05-06 14:13 | 48.34786 | 11.79490 | 1483 ft | 12 kts | 262° |
| 2026-05-06 14:14 | 48.34776 | 11.79341 | 1485 ft | 17 kts | 263° |
| 2026-05-06 14:14 | 48.34759 | 11.79138 | 1485 ft | 22 kts | 263° |
| 2026-05-06 14:14 | 48.34739 | 11.78883 | 1485 ft | 27 kts | 263° |
| 2026-05-06 14:14 | 48.34716 | 11.78602 | 1482 ft | 27 kts | 263° |
| 2026-05-06 14:15 | 48.34695 | 11.78316 | 1473 ft | 28 kts | 263° |
| 2026-05-06 14:15 | 48.34673 | 11.78017 | 1485 ft | 30 kts | 263° |
| 2026-05-06 14:15 | 48.34648 | 11.77703 | 1485 ft | 30 kts | 263° |
| 2026-05-06 14:15 | 48.34624 | 11.77391 | 1473 ft | 30 kts | 263° |
| 2026-05-06 14:16 | 48.34601 | 11.77083 | 1485 ft | 30 kts | 263° |
| 2026-05-06 14:16 | 48.34577 | 11.76775 | 1481 ft | 29 kts | 263° |
| 2026-05-06 14:16 | 48.34554 | 11.76472 | 1482 ft | 29 kts | 264° |
| 2026-05-06 14:16 | 48.34532 | 11.76175 | 1485 ft | 29 kts | 263° |
| 2026-05-06 14:17 | 48.34509 | 11.75877 | 1479 ft | 29 kts | 263° |
| 2026-05-06 14:17 | 48.34485 | 11.75580 | 1477 ft | 28 kts | 264° |
| 2026-05-06 14:17 | 48.34463 | 11.75291 | 1476 ft | 20 kts | 263° |
| 2026-05-06 14:17 | 48.34357 | 11.75226 | 1478 ft | 19 kts | 173° |
| 2026-05-06 14:18 | 48.34243 | 11.75246 | 1481 ft | 9 kts | 173° |
| 2026-05-06 14:18 | 48.34194 | 11.75255 | 1483 ft | 6 kts | 173° |
| 2026-05-06 14:18 | 48.34148 | 11.75264 | 1475 ft | 7 kts | 172° |
| 2026-05-06 14:18 | 48.34103 | 11.75286 | 1482 ft | 7 kts | 149° |
| 2026-05-06 14:19 | 48.34087 | 11.75349 | 1482 ft | 7 kts | 82° |
| 2026-05-06 14:19 | 48.34088 | 11.75358 | 1485 ft | 0 kts | 84° |
| 2026-05-06 14:19 | 48.34089 | 11.75369 | 1485 ft | 3 kts | 84° |
| 2026-05-06 14:19 | 48.34106 | 11.75597 | 1475 ft | 56 kts | 83° |
| 2026-05-06 14:20 | 48.34180 | 11.76542 | 1482 ft | 123 kts | 83° |
| 2026-05-06 14:20 | 48.34297 | 11.78094 | 1549 ft | 167 kts | 81° |
| 2026-05-06 14:20 | 48.34403 | 11.79892 | 2091 ft | 174 kts | 83° |
| 2026-05-06 14:20 | 48.34507 | 11.81678 | 2880 ft | 172 kts | 85° |
| 2026-05-06 14:21 | 48.34648 | 11.83561 | 3316 ft | 192 kts | 83° |
| 2026-05-06 14:21 | 48.34821 | 11.85665 | 3649 ft | 213 kts | 83° |
| 2026-05-06 14:21 | 48.35014 | 11.88006 | 4079 ft | 236 kts | 83° |
| 2026-05-06 14:21 | 48.35218 | 11.90481 | 4946 ft | 241 kts | 83° |
| 2026-05-06 14:22 | 48.35309 | 11.93020 | 5780 ft | 246 kts | 98° |
| 2026-05-06 14:22 | 48.34797 | 11.95552 | 6353 ft | 263 kts | 116° |
| 2026-05-06 14:22 | 48.34041 | 11.98121 | 7084 ft | 274 kts | 116° |
| 2026-05-06 14:22 | 48.33246 | 12.00766 | 7953 ft | 280 kts | 117° |
| 2026-05-06 14:23 | 48.32450 | 12.03420 | 8840 ft | 285 kts | 117° |
| 2026-05-06 14:23 | 48.31635 | 12.06162 | 9718 ft | 290 kts | 118° |
| 2026-05-06 14:23 | 48.30636 | 12.08795 | 10500 ft | 291 kts | 132° |
| 2026-05-06 14:23 | 48.29211 | 12.10932 | 11181 ft | 294 kts | 148° |
| 2026-05-06 14:24 | 48.27377 | 12.12477 | 11471 ft | 312 kts | 161° |
| 2026-05-06 14:24 | 48.25346 | 12.13797 | 12046 ft | 323 kts | 161° |
| 2026-05-06 14:24 | 48.23266 | 12.15153 | 12813 ft | 328 kts | 161° |
| 2026-05-06 14:24 | 48.21155 | 12.16537 | 13604 ft | 333 kts | 161° |
| 2026-05-06 14:25 | 48.19026 | 12.17940 | 14320 ft | 336 kts | 161° |
| 2026-05-06 14:25 | 48.16879 | 12.19364 | 15054 ft | 338 kts | 161° |
| 2026-05-06 14:25 | 48.14721 | 12.20799 | 15786 ft | 341 kts | 161° |
| 2026-05-06 14:25 | 48.12625 | 12.22527 | 16512 ft | 349 kts | 150° |
| 2026-05-06 14:26 | 48.10639 | 12.24659 | 17247 ft | 352 kts | 150° |
| 2026-05-06 14:26 | 48.08643 | 12.26803 | 17965 ft | 355 kts | 150° |
| 2026-05-06 14:26 | 48.06626 | 12.28960 | 18584 ft | 358 kts | 150° |
| 2026-05-06 14:26 | 48.04588 | 12.31131 | 19185 ft | 361 kts | 150° |
| 2026-05-06 14:27 | 48.02558 | 12.33287 | 19782 ft | 364 kts | 150° |
| 2026-05-06 14:27 | 48.00477 | 12.35501 | 20389 ft | 367 kts | 150° |
| 2026-05-06 14:27 | 47.98395 | 12.37717 | 20995 ft | 370 kts | 150° |
| 2026-05-06 14:27 | 47.96413 | 12.40248 | 21542 ft | 380 kts | 143° |
| 2026-05-06 14:28 | 47.94473 | 12.42958 | 22119 ft | 383 kts | 143° |
| 2026-05-06 14:28 | 47.92517 | 12.45693 | 22684 ft | 387 kts | 143° |
| 2026-05-06 14:28 | 47.90545 | 12.48452 | 23241 ft | 390 kts | 143° |
| 2026-05-06 14:28 | 47.88553 | 12.51232 | 23694 ft | 394 kts | 144° |
| 2026-05-06 14:29 | 47.86546 | 12.54022 | 24156 ft | 397 kts | 144° |
| 2026-05-06 14:29 | 47.84519 | 12.56839 | 24590 ft | 400 kts | 144° |
| 2026-05-06 14:29 | 47.82479 | 12.59671 | 25028 ft | 403 kts | 144° |
| 2026-05-06 14:29 | 47.80439 | 12.62561 | 25477 ft | 406 kts | 143° |
| 2026-05-06 14:30 | 47.78423 | 12.65535 | 25916 ft | 410 kts | 142° |
| 2026-05-06 14:30 | 47.76416 | 12.68569 | 26349 ft | 413 kts | 142° |
| 2026-05-06 14:30 | 47.74406 | 12.71631 | 26736 ft | 416 kts | 141° |
| 2026-05-06 14:30 | 47.72375 | 12.74711 | 27074 ft | 419 kts | 142° |
| 2026-05-06 14:31 | 47.70343 | 12.77767 | 27420 ft | 423 kts | 142° |
| 2026-05-06 14:31 | 47.68229 | 12.80918 | 27879 ft | 427 kts | 142° |
| 2026-05-06 14:31 | 47.66147 | 12.84005 | 28315 ft | 430 kts | 143° |
| 2026-05-06 14:31 | 47.64019 | 12.87150 | 28647 ft | 433 kts | 143° |
| 2026-05-06 14:32 | 47.59754 | 12.93440 | 28710 ft | 432 kts | 143° |
| 2026-05-06 14:32 | 47.55485 | 12.99740 | 28723 ft | 432 kts | 143° |
| 2026-05-06 14:33 | 47.51219 | 13.06022 | 28701 ft | 433 kts | 143° |
| 2026-05-06 14:33 | 47.46923 | 13.12332 | 28746 ft | 435 kts | 143° |
| 2026-05-06 14:34 | 47.42646 | 13.18601 | 28755 ft | 436 kts | 143° |
| 2026-05-06 14:34 | 47.38347 | 13.24886 | 28775 ft | 435 kts | 143° |
| 2026-05-06 14:35 | 47.33880 | 13.30785 | 28787 ft | 424 kts | 154° |
| 2026-05-06 14:35 | 47.28680 | 13.34382 | 28786 ft | 406 kts | 171° |
| 2026-05-06 14:36 | 47.23219 | 13.36300 | 28825 ft | 404 kts | 173° |
| 2026-05-06 14:36 | 47.17744 | 13.38198 | 28829 ft | 405 kts | 173° |
| 2026-05-06 14:37 | 47.12266 | 13.40094 | 28823 ft | 404 kts | 173° |
| 2026-05-06 14:37 | 47.06783 | 13.41987 | 28840 ft | 405 kts | 173° |
| 2026-05-06 14:38 | 47.01299 | 13.43876 | 28858 ft | 405 kts | 173° |
| 2026-05-06 14:38 | 46.95827 | 13.45765 | 28861 ft | 403 kts | 173° |
| 2026-05-06 14:39 | 46.90398 | 13.47635 | 28866 ft | 403 kts | 173° |
| 2026-05-06 14:39 | 46.84933 | 13.49498 | 28874 ft | 403 kts | 174° |
| 2026-05-06 14:40 | 46.79465 | 13.51361 | 28883 ft | 404 kts | 173° |
| 2026-05-06 14:40 | 46.74208 | 13.54635 | 28880 ft | 418 kts | 159° |
| 2026-05-06 14:41 | 46.69048 | 13.58614 | 28886 ft | 419 kts | 159° |
| 2026-05-06 14:41 | 46.63888 | 13.62565 | 28897 ft | 420 kts | 159° |
| 2026-05-06 14:42 | 46.58748 | 13.66489 | 28893 ft | 420 kts | 159° |
| 2026-05-06 14:42 | 46.53587 | 13.70428 | 28893 ft | 417 kts | 160° |
| 2026-05-06 14:43 | 46.48481 | 13.74445 | 28891 ft | 418 kts | 158° |
| 2026-05-06 14:43 | 46.43434 | 13.78662 | 28891 ft | 418 kts | 157° |
| 2026-05-06 14:44 | 46.38362 | 13.82922 | 28895 ft | 422 kts | 156° |
| 2026-05-06 14:45 | 46.30691 | 13.89248 | 28912 ft | 422 kts | 157° |
| 2026-05-06 14:45 | 46.25573 | 13.93425 | 28921 ft | 422 kts | 157° |
| 2026-05-06 14:46 | 46.20550 | 13.97546 | 28578 ft | 406 kts | 157° |
| 2026-05-06 14:46 | 46.18095 | 13.99559 | 27838 ft | 406 kts | 157° |
| 2026-05-06 14:46 | 46.15637 | 14.01563 | 27104 ft | 405 kts | 157° |
| 2026-05-06 14:46 | 46.13186 | 14.03557 | 26391 ft | 404 kts | 156° |
| 2026-05-06 14:47 | 46.10770 | 14.05519 | 25673 ft | 403 kts | 156° |
| 2026-05-06 14:47 | 46.08299 | 14.07522 | 24991 ft | 402 kts | 156° |
| 2026-05-06 14:47 | 46.05803 | 14.09117 | 24328 ft | 393 kts | 167° |
| 2026-05-06 14:47 | 46.03146 | 14.09943 | 23681 ft | 385 kts | 178° |
| 2026-05-06 14:48 | 46.00485 | 14.10144 | 22951 ft | 382 kts | 181° |
| 2026-05-06 14:48 | 45.97825 | 14.10302 | 22198 ft | 382 kts | 181° |
| 2026-05-06 14:48 | 45.95164 | 14.10466 | 21467 ft | 382 kts | 181° |
| 2026-05-06 14:48 | 45.92502 | 14.10632 | 20753 ft | 382 kts | 181° |
| 2026-05-06 14:49 | 45.89849 | 14.10799 | 20060 ft | 382 kts | 181° |
| 2026-05-06 14:49 | 45.87230 | 14.10966 | 19386 ft | 381 kts | 181° |
| 2026-05-06 14:49 | 45.84578 | 14.11133 | 18722 ft | 382 kts | 181° |
| 2026-05-06 14:49 | 45.81913 | 14.11298 | 18047 ft | 384 kts | 181° |
| 2026-05-06 14:50 | 45.79246 | 14.11486 | 17300 ft | 386 kts | 178° |
| 2026-05-06 14:50 | 45.76609 | 14.12392 | 16575 ft | 395 kts | 162° |
| 2026-05-06 14:50 | 45.74100 | 14.14017 | 15859 ft | 396 kts | 159° |
| 2026-05-06 14:50 | 45.71604 | 14.15683 | 15165 ft | 396 kts | 159° |
| 2026-05-06 14:51 | 45.69115 | 14.17358 | 14493 ft | 395 kts | 159° |
| 2026-05-06 14:51 | 45.66637 | 14.19036 | 13824 ft | 393 kts | 159° |
| 2026-05-06 14:51 | 45.64170 | 14.20706 | 13092 ft | 391 kts | 159° |
| 2026-05-06 14:51 | 45.61755 | 14.22343 | 12357 ft | 376 kts | 159° |
| 2026-05-06 14:52 | 45.59434 | 14.23917 | 11657 ft | 362 kts | 159° |
| 2026-05-06 14:52 | 45.57200 | 14.25427 | 10963 ft | 349 kts | 159° |
| 2026-05-06 14:52 | 45.55761 | 14.26396 | 10520 ft | 342 kts | 159° |
| 2026-05-06 14:52 | 45.53641 | 14.27821 | 9844 ft | 332 kts | 160° |
| 2026-05-06 14:53 | 45.50922 | 14.29643 | 8869 ft | 320 kts | 160° |
| 2026-05-06 14:53 | 45.48932 | 14.30972 | 8142 ft | 313 kts | 160° |
| 2026-05-06 14:53 | 45.46980 | 14.32271 | 7418 ft | 308 kts | 160° |
| 2026-05-06 14:53 | 45.45045 | 14.33555 | 6690 ft | 307 kts | 159° |
| 2026-05-06 14:54 | 45.43757 | 14.34408 | 6218 ft | 307 kts | 158° |
| 2026-05-06 14:54 | 45.41899 | 14.35886 | 5468 ft | 305 kts | 150° |
| 2026-05-06 14:54 | 45.40171 | 14.37589 | 4745 ft | 300 kts | 148° |
| 2026-05-06 14:54 | 45.38524 | 14.39359 | 4154 ft | 290 kts | 145° |
| 2026-05-06 14:55 | 45.36990 | 14.41078 | 3790 ft | 272 kts | 146° |
| 2026-05-06 14:55 | 45.35521 | 14.42633 | 3448 ft | 255 kts | 147° |
| 2026-05-06 14:55 | 45.34129 | 14.44082 | 3118 ft | 243 kts | 148° |
| 2026-05-06 14:55 | 45.32785 | 14.45484 | 2768 ft | 239 kts | 144° |
| 2026-05-06 14:56 | 45.31431 | 14.46892 | 2438 ft | 239 kts | 144° |
| 2026-05-06 14:56 | 45.30121 | 14.48263 | 2124 ft | 226 kts | 145° |
| 2026-05-06 14:56 | 45.28917 | 14.49524 | 1889 ft | 203 kts | 147° |
| 2026-05-06 14:56 | 45.27833 | 14.50657 | 1612 ft | 184 kts | 146° |
| 2026-05-06 14:57 | 45.26856 | 14.51676 | 1370 ft | 166 kts | 146° |
| 2026-05-06 14:57 | 45.25969 | 14.52599 | 1144 ft | 151 kts | 147° |
| 2026-05-06 14:57 | 45.25138 | 14.53465 | 951 ft | 146 kts | 147° |
| 2026-05-06 14:57 | 45.24328 | 14.54307 | 766 ft | 138 kts | 147° |
| 2026-05-06 14:58 | 45.23578 | 14.55089 | 576 ft | 131 kts | 147° |
| 2026-05-06 14:58 | 45.22847 | 14.55847 | 392 ft | 130 kts | 145° |
| 2026-05-06 14:58 | 45.22143 | 14.56579 | 291 ft | 112 kts | 144° |
| 2026-05-06 14:58 | 45.21630 | 14.57113 | 286 ft | 70 kts | 143° |
| 2026-05-06 14:59 | 45.21376 | 14.57378 | 281 ft | 26 kts | 143° |
| 2026-05-06 14:59 | 45.21225 | 14.57536 | 271 ft | 29 kts | 143° |
| 2026-05-06 14:59 | 45.21062 | 14.57707 | 265 ft | 30 kts | 143° |